Laguna, New South Wales

3:17 PM AEST on September 04, 2015 (GMT +1000)
INSWLAGU2 | | Change Station
CLOSE
Current Station
Personal Weather Station
Location: Laguna, NSW
Elevation: 446 ft
Nearby Weather Stations

Elev 446 ft 33.03 °S, 151.18 °E | Updated 57 days ago

Mostly Cloudy
Mostly Cloudy
59 °F
Feels Like 59 °F
N
7
Wind Variable Wind from SSE
Gusts mph

Today
High -- | Low -- °F
--% Chance of Precip.
Yesterday
High -- | Low -- °F
Precip. -- in
6:10 AM 5:39 PM
Waning Gibbous, 63% visible
Pressure 30.12 in
Visibility 5.0 miles
Clouds Few 1400 ft
Scattered Clouds 2400 ft
Mostly Cloudy 3500 ft
Dew Point 50 °F
Humidity 73%
Rainfall in
Snow Depth Not available.
UV 2 out of 12
Pollen Not available.
Air Quality Not available.
Flu Activity Not available.
METAR YWLM 040500Z 26007KT 8000 -SHRA FEW014 SCT024 BKN035 15/14 Q1020 FM0500 20012KT 9999 -SHRA SCT015 BKN030 INTER 0500/0600 5000 SHRA BKN010
Pressure 30.12 in
Visibility 5.0 miles
Clouds Few 1400 ft
Scattered Clouds 2400 ft
Mostly Cloudy 3500 ft
Dew Point 50 °F
Humidity 73%
Rainfall in
Snow Depth Not available.
UV 2 out of 12
Pollen Not available.
Air Quality Not available.
Flu Activity Not available.
METAR YWLM 040500Z 26007KT 8000 -SHRA FEW014 SCT024 BKN035 15/14 Q1020 FM0500 20012KT 9999 -SHRA SCT015 BKN030 INTER 0500/0600 5000 SHRA BKN010

10-Day Weather Forecast

×

Almanac

Astronomy

Sep. 04, 2015 Rise Set
Actual Time
Civil Twilight
Nautical Twilight
Astronomical Twilight
Moon
Length of Visible Light
Length of Day
Tomorrow will be .
, % of the Moon is Illuminated

Today's Extremes

Country Highs Country Lows

Community

WunderPhotos

Upload Photos

1,852,129 photos uploaded!

WunderBlogs® & News

Nearby

Air Quality

  Air Quality AQ Index Pollutant
Not available.

Snow Depth

Station Depth Elevation

Earthquake Activity

City Distance Mag. Time & Date
Minimum magnitude displayed is 2.5.

Coastal Water Temperatures

Place Temperature

Stations

Nearby Weather Stations

Station Location Temp. Windchill Dew Point Humidity Wind Precip. Elev Updated Type